createdAt,value
2023-05-04T00:00:43.190Z,96856.59
2023-05-04T00:01:44.708Z,96856.06
2023-05-04T00:02:46.314Z,96864.59
2023-05-04T00:03:48.644Z,96860.84
2023-05-04T00:04:54.206Z,96861.38
2023-05-04T00:05:56.194Z,96857.13
2023-05-04T00:06:57.703Z,96861.81
2023-05-04T00:07:59.292Z,96861.19
2023-05-04T00:09:00.897Z,96860.53
2023-05-04T00:10:02.776Z,96862.69
2023-05-04T00:11:05.200Z,96860.25
2023-05-04T00:12:08.232Z,96853.88
2023-05-04T00:13:10.019Z,96855.53
2023-05-04T00:14:11.738Z,96862.28
2023-05-04T00:15:13.295Z,96858.56
2023-05-04T00:16:14.940Z,96860.88
2023-05-04T00:17:16.980Z,96854.72
2023-05-04T00:18:18.505Z,96860.53
2023-05-04T00:19:20.061Z,96861.00
2023-05-04T00:20:21.719Z,96857.13
2023-05-04T00:21:23.269Z,96859.16
2023-05-04T00:22:24.871Z,96859.56
2023-05-04T00:23:26.421Z,96860.44
2023-05-04T00:24:28.739Z,96867.03
2023-05-04T00:25:30.700Z,96856.69
2023-05-04T00:26:32.333Z,96861.97
2023-05-04T00:27:35.119Z,96865.84
2023-05-04T00:28:36.746Z,96865.13
2023-05-04T00:29:38.404Z,96865.97
2023-05-04T00:30:39.905Z,96863.72
2023-05-04T00:31:41.524Z,96862.22
2023-05-04T00:32:43.202Z,96862.22
2023-05-04T00:33:45.754Z,96862.94
2023-05-04T00:34:48.541Z,96864.41
2023-05-04T00:35:50.759Z,96861.97
2023-05-04T00:36:52.532Z,96865.84
2023-05-04T00:37:54.035Z,96855.75
2023-05-04T00:38:56.042Z,96861.06
2023-05-04T00:39:58.181Z,96854.72
2023-05-04T00:40:59.791Z,96851.44
2023-05-04T00:42:01.814Z,96854.56
2023-05-04T00:43:03.394Z,96861.59
2023-05-04T00:44:05.964Z,96857.84
2023-05-04T00:45:08.006Z,96854.09
2023-05-04T00:46:11.139Z,96859.75
2023-05-04T00:47:13.742Z,96859.06
2023-05-04T00:48:15.802Z,96850.91
2023-05-04T00:49:17.680Z,96859.41
2023-05-04T00:50:19.831Z,96864.88
2023-05-04T00:51:23.510Z,96864.94
2023-05-04T00:52:25.212Z,96862.69
2023-05-04T00:53:27.036Z,96862.75
2023-05-04T00:54:29.210Z,96857.47
2023-05-04T00:55:31.676Z,96862.94
2023-05-04T00:56:33.757Z,96865.28
2023-05-04T00:57:35.315Z,96855.28
2023-05-04T00:58:37.310Z,96863.44
2023-05-04T00:59:39.459Z,96861.53
2023-05-04T01:00:41.522Z,96863.84
2023-05-04T01:01:43.737Z,96862.72
2023-05-04T01:02:45.382Z,96858.56
2023-05-04T01:03:47.712Z,96867.06
2023-05-04T01:04:49.506Z,96857.91
2023-05-04T01:06:12.958Z,96866.88
2023-05-04T01:07:26.729Z,96863.38
2023-05-04T01:08:32.586Z,96862.59
2023-05-04T01:09:49.965Z,96858.78
2023-05-04T01:11:03.882Z,96853.38
2023-05-04T01:12:05.653Z,96851.88
2023-05-04T01:13:12.035Z,96853.44
2023-05-04T01:14:14.929Z,96853.50
2023-05-04T01:15:16.675Z,96852.81
2023-05-04T01:16:18.428Z,96848.28
2023-05-04T01:17:20.309Z,96844.50
2023-05-04T01:18:23.353Z,96845.28
2023-05-04T01:19:27.600Z,96841.38
2023-05-04T01:20:29.236Z,96833.56
2023-05-04T01:21:31.230Z,96842.72
2023-05-04T01:22:32.924Z,96837.50
2023-05-04T01:23:34.539Z,96838.44
2023-05-04T01:24:36.282Z,96839.88
2023-05-04T01:26:07.047Z,96841.72
2023-05-04T01:27:19.241Z,96837.38
2023-05-04T01:28:32.280Z,96834.31
2023-05-04T01:29:48.478Z,96829.03
2023-05-04T01:30:54.368Z,96823.47
2023-05-04T01:31:57.075Z,96830.44
2023-05-04T01:33:00.622Z,96823.84
2023-05-04T01:34:03.112Z,96825.03
2023-05-04T01:35:05.068Z,96822.63
2023-05-04T01:36:08.035Z,96827.75
2023-05-04T01:37:10.074Z,96827.25
2023-05-04T01:38:11.861Z,96818.31
2023-05-04T01:39:13.498Z,96825.25
2023-05-04T01:40:15.765Z,96820.72
2023-05-04T01:41:17.345Z,96822.38
2023-05-04T01:42:19.013Z,96824.72
2023-05-04T01:43:20.581Z,96830.91
2023-05-04T01:44:22.149Z,96821.50
2023-05-04T01:45:23.910Z,96817.59
2023-05-04T01:46:25.532Z,96821.00
2023-05-04T01:47:27.113Z,96819.88
2023-05-04T01:48:28.709Z,96823.69
2023-05-04T01:49:30.377Z,96826.81
2023-05-04T01:50:32.091Z,96821.44
2023-05-04T01:51:33.682Z,96823.69
2023-05-04T01:52:35.249Z,96819.00
2023-05-04T01:53:36.775Z,96824.53
2023-05-04T01:54:38.414Z,96827.84
2023-05-04T01:55:39.980Z,96825.50
2023-05-04T01:56:42.148Z,96839.28
2023-05-04T01:57:43.687Z,96825.41
2023-05-04T01:58:45.227Z,96825.16
2023-05-04T01:59:46.762Z,96824.19
2023-05-04T02:00:48.340Z,96826.38
2023-05-04T02:01:49.909Z,96829.25
2023-05-04T02:02:51.573Z,96822.47
2023-05-04T02:03:53.319Z,96826.81
2023-05-04T02:04:54.966Z,96833.84
2023-05-04T02:05:56.628Z,96825.81
2023-05-04T02:06:58.220Z,96833.19
2023-05-04T02:07:59.766Z,96829.09
2023-05-04T02:09:01.329Z,96828.47
2023-05-04T02:10:03.898Z,96823.94
2023-05-04T02:11:05.697Z,96829.50
2023-05-04T02:12:07.479Z,96826.53
2023-05-04T02:13:09.111Z,96827.38
2023-05-04T02:14:10.702Z,96821.28
2023-05-04T02:15:12.316Z,96825.19
2023-05-04T02:16:13.951Z,96826.03
2023-05-04T02:17:15.554Z,96826.09
2023-05-04T02:18:17.297Z,96829.69
2023-05-04T02:19:18.840Z,96828.53
2023-05-04T02:20:20.407Z,96835.47
2023-05-04T02:21:21.939Z,96832.44
2023-05-04T02:22:23.501Z,96835.91
2023-05-04T02:23:25.368Z,96840.97
2023-05-04T02:24:26.993Z,96837.91
2023-05-04T02:25:28.626Z,96835.19
2023-05-04T02:26:30.219Z,96840.25
2023-05-04T02:27:31.764Z,96840.25
2023-05-04T02:28:33.359Z,96842.00
2023-05-04T02:29:34.893Z,96841.59
2023-05-04T02:30:36.454Z,96844.56
2023-05-04T02:31:38.114Z,96846.13
2023-05-04T02:32:39.733Z,96844.56
2023-05-04T02:33:41.301Z,96838.72
2023-05-04T02:34:42.865Z,96842.78
2023-05-04T02:35:44.425Z,96841.56
2023-05-04T02:36:47.074Z,96839.25
2023-05-04T02:37:48.827Z,96829.75
2023-05-04T02:38:51.338Z,96840.75
2023-05-04T02:39:52.911Z,96832.44
2023-05-04T02:40:54.451Z,96839.00
2023-05-04T02:41:55.984Z,96838.75
2023-05-04T02:42:57.657Z,96829.56
2023-05-04T02:43:59.220Z,96839.28
2023-05-04T02:45:01.110Z,96840.59
2023-05-04T02:46:02.959Z,96837.72
2023-05-04T02:47:05.973Z,96839.47
2023-05-04T02:48:07.579Z,96845.94
2023-05-04T02:49:09.346Z,96844.97
2023-05-04T02:50:11.062Z,96847.06
2023-05-04T02:51:12.600Z,96852.97
2023-05-04T02:52:14.476Z,96840.34
2023-05-04T02:53:16.173Z,96845.81
2023-05-04T02:54:17.785Z,96845.13
2023-05-04T02:55:19.428Z,96835.13
2023-05-04T02:56:21.367Z,96840.94
2023-05-04T02:57:22.946Z,96850.59
2023-05-04T02:58:24.516Z,96840.66
2023-05-04T02:59:26.140Z,96846.91
2023-05-04T03:00:27.725Z,96846.63
2023-05-04T03:01:29.354Z,96845.50
2023-05-04T03:02:31.040Z,96853.31
2023-05-04T03:03:32.657Z,96854.16
2023-05-04T03:04:34.306Z,96851.13
2023-05-04T03:05:35.918Z,96855.84
2023-05-04T03:06:37.752Z,96858.94
2023-05-04T03:07:39.442Z,96858.31
2023-05-04T03:08:41.211Z,96851.59
2023-05-04T03:09:44.168Z,96855.13
2023-05-04T03:10:46.896Z,96853.94
2023-05-04T03:11:48.434Z,96853.56
2023-05-04T03:12:50.471Z,96852.38
2023-05-04T03:13:52.621Z,96856.97
2023-05-04T03:14:54.179Z,96849.97
2023-05-04T03:15:55.694Z,96852.50
2023-05-04T03:16:58.068Z,96849.09
2023-05-04T03:17:59.865Z,96854.06
2023-05-04T03:19:01.570Z,96854.50
2023-05-04T03:20:03.591Z,96859.88
2023-05-04T03:21:05.506Z,96861.03
2023-05-04T03:22:07.209Z,96861.28
2023-05-04T03:23:08.922Z,96861.97
2023-05-04T03:24:11.400Z,96863.47
2023-05-04T03:25:12.936Z,96859.56
2023-05-04T03:26:14.437Z,96861.13
2023-05-04T03:27:16.014Z,96861.13
2023-05-04T03:28:17.770Z,96862.69
2023-05-04T03:29:19.325Z,96863.41
2023-05-04T03:30:21.028Z,96862.53
2023-05-04T03:31:22.659Z,96863.75
2023-05-04T03:32:24.894Z,96868.03
2023-05-04T03:33:26.646Z,96866.53
2023-05-04T03:34:28.240Z,96868.09
2023-05-04T03:35:29.832Z,96866.97
2023-05-04T03:36:31.500Z,96871.22
2023-05-04T03:37:33.054Z,96870.50
2023-05-04T03:38:34.738Z,96866.69
2023-05-04T03:39:36.368Z,96873.72
2023-05-04T03:40:38.020Z,96862.94
2023-05-04T03:41:39.554Z,96869.88
2023-05-04T03:42:41.149Z,96872.84
2023-05-04T03:43:42.738Z,96880.50
2023-05-04T03:44:44.314Z,96877.03
2023-05-04T03:45:46.404Z,96878.69
2023-05-04T03:46:47.998Z,96881.69
2023-05-04T03:47:49.620Z,96885.44
2023-05-04T03:48:51.235Z,96883.88
2023-05-04T03:49:52.798Z,96891.69
2023-05-04T03:50:54.518Z,96884.47
2023-05-04T03:51:56.035Z,96885.41
2023-05-04T03:52:57.617Z,96887.50
2023-05-04T03:53:59.229Z,96894.19
2023-05-04T03:55:00.837Z,96889.66
2023-05-04T03:56:03.410Z,96894.44
2023-05-04T03:57:05.024Z,96899.88
2023-05-04T03:58:07.016Z,96896.91
2023-05-04T03:59:08.557Z,96896.97
2023-05-04T04:00:10.946Z,96896.19
2023-05-04T04:01:12.509Z,96892.25
2023-05-04T04:02:14.080Z,96899.03
2023-05-04T04:03:15.872Z,96888.53
2023-05-04T04:04:17.597Z,96896.03
2023-05-04T04:05:19.361Z,96899.31
2023-05-04T04:06:22.797Z,96892.97
2023-05-04T04:07:24.493Z,96896.66
2023-05-04T04:08:26.274Z,96898.09
2023-05-04T04:09:28.932Z,96905.69
2023-05-04T04:10:31.004Z,96910.72
2023-05-04T04:11:32.603Z,96905.69
2023-05-04T04:12:34.383Z,96907.75
2023-05-04T04:13:36.040Z,96903.59
2023-05-04T04:14:37.574Z,96909.66
2023-05-04T04:15:40.614Z,96917.47
2023-05-04T04:16:43.252Z,96909.16
2023-05-04T04:17:44.837Z,96909.34
2023-05-04T04:18:46.562Z,96912.28
2023-05-04T04:19:48.208Z,96911.69
2023-05-04T04:20:50.352Z,96913.31
2023-05-04T04:21:51.932Z,96914.97
2023-05-04T04:22:53.756Z,96914.25
2023-05-04T04:23:55.406Z,96907.59
2023-05-04T04:24:56.994Z,96913.25
2023-05-04T04:25:58.539Z,96906.63
2023-05-04T04:27:00.163Z,96903.94
2023-05-04T04:28:01.801Z,96910.97
2023-05-04T04:29:03.966Z,96914.44
2023-05-04T04:30:06.232Z,96918.63
2023-05-04T04:31:08.107Z,96907.69
2023-05-04T04:32:09.803Z,96915.31
2023-05-04T04:33:12.033Z,96919.59
2023-05-04T04:34:16.464Z,96917.34
2023-05-04T04:35:18.427Z,96926.63
2023-05-04T04:36:20.006Z,96921.69
2023-05-04T04:37:21.961Z,96922.88
2023-05-04T04:38:23.614Z,96918.38
2023-05-04T04:39:25.913Z,96925.41
2023-05-04T04:40:28.584Z,96928.53
2023-05-04T04:41:31.189Z,96927.06
2023-05-04T04:42:34.451Z,96930.59
2023-05-04T04:43:36.898Z,96937.22
2023-05-04T04:44:39.574Z,96938.78
2023-05-04T04:45:41.611Z,96931.91
2023-05-04T04:46:44.988Z,96939.72
2023-05-04T04:47:47.313Z,96933.63
2023-05-04T04:48:49.256Z,96938.75
2023-05-04T04:49:50.986Z,96931.09
2023-05-04T04:50:52.956Z,96927.00
2023-05-04T04:51:54.567Z,96931.63
2023-05-04T04:52:56.354Z,96929.25
2023-05-04T04:53:57.930Z,96931.97
2023-05-04T04:54:59.978Z,96935.09
2023-05-04T04:56:01.896Z,96928.13
2023-05-04T04:57:04.160Z,96934.66
2023-05-04T04:58:06.769Z,96936.63
2023-05-04T04:59:08.339Z,96939.78
2023-05-04T05:00:10.552Z,96941.00
2023-05-04T05:01:18.095Z,96936.81
2023-05-04T05:02:20.187Z,96942.63
2023-05-04T05:03:21.948Z,96944.19
2023-05-04T05:04:23.976Z,96943.16
2023-05-04T05:05:25.639Z,96944.28
2023-05-04T05:06:27.201Z,96936.53
2023-05-04T05:07:28.766Z,96941.47
2023-05-04T05:08:32.770Z,96936.81
2023-05-04T05:09:35.352Z,96933.94
2023-05-04T05:10:36.876Z,96938.84
2023-05-04T05:11:38.628Z,96938.94
2023-05-04T05:12:40.563Z,96938.97
2023-05-04T05:13:42.197Z,96934.81
2023-05-04T05:14:44.501Z,96935.94
2023-05-04T05:15:46.060Z,96938.88
2023-05-04T05:16:47.602Z,96937.66
2023-05-04T05:17:49.221Z,96937.50
2023-05-04T05:18:50.944Z,96940.47
2023-05-04T05:19:52.626Z,96936.44
2023-05-04T05:20:54.191Z,96945.91
2023-05-04T05:21:57.078Z,96943.66
2023-05-04T05:22:58.846Z,96948.78
2023-05-04T05:24:01.743Z,96938.69
2023-05-04T05:25:04.425Z,96936.53
2023-05-04T05:26:06.388Z,96950.69
2023-05-04T05:27:08.376Z,96948.16
2023-05-04T05:28:10.364Z,96949.47
2023-05-04T05:29:11.952Z,96947.66
2023-05-04T05:30:13.911Z,96939.66
2023-05-04T05:31:15.633Z,96952.88
2023-05-04T05:32:17.242Z,96950.53
2023-05-04T05:33:19.066Z,96958.41
2023-05-04T05:34:20.683Z,96958.88
2023-05-04T05:35:22.277Z,96957.03
2023-05-04T05:36:23.778Z,96960.78
2023-05-04T05:37:25.413Z,96962.50
2023-05-04T05:38:26.982Z,96962.22
2023-05-04T05:39:28.918Z,96956.59
2023-05-04T05:40:30.559Z,96959.00
2023-05-04T05:41:32.157Z,96962.16
2023-05-04T05:42:33.945Z,96961.44
2023-05-04T05:43:37.160Z,96959.97
2023-05-04T05:44:38.853Z,96964.31
2023-05-04T05:45:40.393Z,96967.00
2023-05-04T05:46:42.056Z,96966.66
2023-05-04T05:47:43.735Z,96961.16
2023-05-04T05:48:45.362Z,96964.56
2023-05-04T05:49:46.956Z,96970.69
2023-05-04T05:50:48.486Z,96965.81
2023-05-04T05:51:50.111Z,96969.19
2023-05-04T05:52:51.742Z,96968.94
2023-05-04T05:53:53.315Z,96971.88
2023-05-04T05:54:55.106Z,96975.56
2023-05-04T05:55:56.655Z,96973.72
2023-05-04T05:56:58.915Z,96968.25
2023-05-04T05:58:00.495Z,96975.63
2023-05-04T05:59:02.253Z,96980.09
2023-05-04T06:00:05.469Z,96978.00
2023-05-04T06:01:07.185Z,96979.56
2023-05-04T06:02:08.860Z,96987.28
2023-05-04T06:03:10.556Z,96985.81
2023-05-04T06:04:12.323Z,96984.44
2023-05-04T06:05:13.988Z,96984.56
2023-05-04T06:06:15.683Z,96977.78
2023-05-04T06:07:17.788Z,96976.94
2023-05-04T06:08:19.434Z,96983.03
2023-05-04T06:09:21.200Z,96980.16
2023-05-04T06:10:22.756Z,96984.94
2023-05-04T06:11:24.308Z,96984.69
2023-05-04T06:12:25.858Z,96990.94
2023-05-04T06:13:27.402Z,96984.06
2023-05-04T06:14:28.958Z,96983.78
2023-05-04T06:15:30.790Z,96986.31
2023-05-04T06:16:32.419Z,96983.34
2023-05-04T06:17:34.038Z,96983.50
2023-05-04T06:18:35.948Z,96992.38
2023-05-04T06:19:38.358Z,96989.84
2023-05-04T06:20:39.927Z,96986.44
2023-05-04T06:21:41.466Z,96985.31
2023-05-04T06:22:42.969Z,96989.59
2023-05-04T06:23:44.764Z,96985.38
2023-05-04T06:24:46.702Z,96973.81
2023-05-04T06:25:48.362Z,96980.69
2023-05-04T06:26:50.327Z,96978.28
2023-05-04T06:27:52.029Z,96975.41
2023-05-04T06:28:53.625Z,96975.84
2023-05-04T06:29:55.231Z,96974.63
2023-05-04T06:30:56.774Z,96971.94
2023-05-04T06:31:59.035Z,96974.81
2023-05-04T06:33:00.759Z,96966.72
2023-05-04T06:34:02.420Z,96969.59
2023-05-04T06:35:04.360Z,96964.22
2023-05-04T06:36:06.447Z,96974.13
2023-05-04T06:37:07.977Z,96971.84
2023-05-04T06:38:09.555Z,96981.31
2023-05-04T06:39:11.412Z,96982.66
2023-05-04T06:40:13.851Z,96981.00
2023-05-04T06:41:15.625Z,96981.00
2023-05-04T06:42:17.244Z,96977.84
2023-05-04T06:43:18.825Z,96982.97
2023-05-04T06:44:20.357Z,96976.03
2023-05-04T06:45:21.948Z,96982.28
2023-05-04T06:46:23.498Z,96979.56
2023-05-04T06:47:25.191Z,96975.00
2023-05-04T06:48:27.373Z,96970.81
2023-05-04T06:49:31.884Z,96973.25
2023-05-04T06:50:33.578Z,96974.81
2023-05-04T06:51:37.568Z,96973.25
2023-05-04T06:52:40.968Z,96968.56
2023-05-04T06:53:42.538Z,96970.03
2023-05-04T06:54:44.182Z,96968.56
2023-05-04T06:55:45.749Z,96974.66
2023-05-04T06:56:47.715Z,96979.63
2023-05-04T06:57:51.092Z,96977.78
2023-05-04T06:58:52.902Z,96979.44
2023-05-04T06:59:54.444Z,96977.53
2023-05-04T07:00:55.980Z,96977.97
2023-05-04T07:01:57.904Z,96970.28
2023-05-04T07:02:59.572Z,96971.59
2023-05-04T07:04:01.406Z,96971.50
2023-05-04T07:05:03.764Z,96976.53
2023-05-04T07:06:05.372Z,96966.47
2023-05-04T07:07:06.951Z,96974.38
2023-05-04T07:08:09.758Z,96970.16
2023-05-04T07:09:11.430Z,96971.94
2023-05-04T07:10:15.318Z,96965.06
2023-05-04T07:11:16.883Z,96974.75
2023-05-04T07:12:18.722Z,96967.44
2023-05-04T07:13:20.418Z,96968.50
2023-05-04T07:14:21.966Z,96965.44
2023-05-04T07:15:23.497Z,96970.94
2023-05-04T07:16:26.345Z,96972.66
2023-05-04T07:17:28.213Z,96968.84
2023-05-04T07:18:29.737Z,96964.28
2023-05-04T07:19:31.340Z,96972.84
2023-05-04T07:20:33.068Z,96968.56
2023-05-04T07:21:35.014Z,96967.44
2023-05-04T07:22:36.616Z,96975.72
2023-05-04T07:23:38.331Z,96969.53
2023-05-04T07:24:39.866Z,96969.00
2023-05-04T07:25:41.494Z,96970.19
2023-05-04T07:26:43.081Z,96969.69
2023-05-04T07:27:45.150Z,96971.84
2023-05-04T07:28:46.803Z,96974.81
2023-05-04T07:29:48.448Z,96984.06
2023-05-04T07:30:50.265Z,96978.75
2023-05-04T07:31:52.015Z,96982.16
2023-05-04T07:32:53.707Z,96979.38
2023-05-04T07:33:55.331Z,96978.69
2023-05-04T07:34:56.886Z,96974.91
2023-05-04T07:35:59.267Z,96982.63
2023-05-04T07:37:00.789Z,96975.75
2023-05-04T07:38:03.142Z,96978.88
2023-05-04T07:39:04.712Z,96977.66
2023-05-04T07:40:07.676Z,96981.09
2023-05-04T07:41:10.366Z,96974.25
2023-05-04T07:42:11.951Z,96975.91
2023-05-04T07:43:13.482Z,96980.59
2023-05-04T07:44:15.047Z,96984.22
2023-05-04T07:45:17.566Z,96979.66
2023-05-04T07:46:19.275Z,96982.41
2023-05-04T07:47:20.999Z,96980.84
2023-05-04T07:48:24.641Z,96978.84
2023-05-04T07:49:27.946Z,96974.38
2023-05-04T07:50:29.994Z,96984.16
2023-05-04T07:51:31.682Z,96982.41
2023-05-04T07:52:33.310Z,96982.06
2023-05-04T07:53:34.970Z,96981.41
2023-05-04T07:54:36.546Z,96982.53
2023-05-04T07:55:38.173Z,96985.59
2023-05-04T07:56:39.694Z,96980.72
2023-05-04T07:57:41.357Z,96988.19
2023-05-04T07:58:42.947Z,96989.72
2023-05-04T07:59:44.493Z,96988.59
2023-05-04T08:00:46.301Z,96993.34
2023-05-04T08:01:48.023Z,96987.97
2023-05-04T08:02:49.814Z,96992.34
2023-05-04T08:03:51.431Z,96995.16
2023-05-04T08:04:53.016Z,96998.34
2023-05-04T08:05:54.595Z,96989.59
2023-05-04T08:06:56.141Z,96996.00
2023-05-04T08:07:57.735Z,96994.59
2023-05-04T08:08:59.247Z,96990.88
2023-05-04T08:10:00.924Z,96993.72
2023-05-04T08:11:15.909Z,96991.56
2023-05-04T08:12:20.609Z,96992.06
2023-05-04T08:13:22.240Z,96982.19
2023-05-04T08:14:23.871Z,96991.91
2023-05-04T08:15:25.683Z,96992.41
2023-05-04T08:16:29.214Z,96999.63
2023-05-04T08:17:30.914Z,96988.09
2023-05-04T08:18:32.530Z,96991.34
2023-05-04T08:19:34.231Z,96996.13
2023-05-04T08:20:35.791Z,96992.34
2023-05-04T08:21:37.410Z,96990.25
2023-05-04T08:22:39.264Z,96988.47
2023-05-04T08:23:40.819Z,96989.00
2023-05-04T08:24:42.514Z,96989.75
2023-05-04T08:25:44.108Z,96990.72
2023-05-04T08:26:52.676Z,96992.22
2023-05-04T08:28:06.552Z,96989.81
2023-05-04T08:29:10.592Z,96998.03
2023-05-04T08:30:12.796Z,96986.09
2023-05-04T08:31:14.426Z,96990.75
2023-05-04T08:32:16.055Z,96990.06
2023-05-04T08:33:17.638Z,96987.34
2023-05-04T08:34:19.184Z,96983.47
2023-05-04T08:35:21.293Z,96987.22
2023-05-04T08:36:22.871Z,96993.78
2023-05-04T08:37:24.460Z,96986.56
2023-05-04T08:38:26.240Z,96984.22
2023-05-04T08:39:27.813Z,96986.50
2023-05-04T08:40:29.553Z,96984.34
2023-05-04T08:41:31.375Z,96981.41
2023-05-04T08:42:34.492Z,96976.88
2023-05-04T08:43:36.861Z,96975.81
2023-05-04T08:44:38.529Z,96977.84
2023-05-04T08:45:40.288Z,96968.66
2023-05-04T08:46:42.598Z,96976.91
2023-05-04T08:47:45.104Z,96974.22
2023-05-04T08:48:47.306Z,96971.03
2023-05-04T08:49:49.682Z,96974.47
2023-05-04T08:50:51.430Z,96972.91
2023-05-04T08:51:53.061Z,96974.94
2023-05-04T08:52:55.985Z,96971.16
2023-05-04T08:53:58.798Z,96972.75
2023-05-04T08:55:01.216Z,96965.75
2023-05-04T08:56:07.763Z,96971.00
2023-05-04T08:57:09.443Z,96971.94
2023-05-04T08:58:12.943Z,96961.97
2023-05-04T08:59:20.312Z,96965.53
2023-05-04T09:00:23.224Z,96960.94
2023-05-04T09:01:25.292Z,96962.41
2023-05-04T09:02:28.126Z,96956.44
2023-05-04T09:03:30.683Z,96960.00
2023-05-04T09:04:32.402Z,96956.66
2023-05-04T09:05:34.675Z,96957.56
2023-05-04T09:06:36.384Z,96958.84
2023-05-04T09:07:38.143Z,96956.31
2023-05-04T09:08:40.142Z,96958.44
2023-05-04T09:09:42.059Z,96951.22
2023-05-04T09:10:43.635Z,96953.72
2023-05-04T09:11:45.269Z,96947.22
2023-05-04T09:12:47.298Z,96949.97
2023-05-04T09:13:48.850Z,96951.41
2023-05-04T09:14:50.473Z,96941.13
2023-05-04T09:15:55.943Z,96953.00
2023-05-04T09:16:57.707Z,96947.06
2023-05-04T09:18:03.094Z,96951.72
2023-05-04T09:19:16.303Z,96942.59
2023-05-04T09:20:17.897Z,96946.78
2023-05-04T09:21:29.357Z,96939.22
2023-05-04T09:22:31.563Z,96937.06
2023-05-04T09:23:33.735Z,96943.75
2023-05-04T09:24:35.302Z,96947.25
2023-05-04T09:25:54.137Z,96943.47
2023-05-04T09:26:56.035Z,96944.25
2023-05-04T09:27:57.569Z,96933.44
2023-05-04T09:29:15.270Z,96943.50
2023-05-04T09:30:21.493Z,96945.03
2023-05-04T09:31:23.787Z,96948.16
2023-05-04T09:32:25.553Z,96938.44
2023-05-04T09:33:27.563Z,96944.25
2023-05-04T09:34:29.620Z,96940.38
2023-05-04T09:35:34.042Z,96934.16
2023-05-04T09:36:36.019Z,96935.63
2023-05-04T09:37:46.061Z,96934.00
2023-05-04T09:38:47.862Z,96938.66
2023-05-04T09:39:51.751Z,96936.75
2023-05-04T09:40:53.293Z,96935.63
2023-05-04T09:41:55.395Z,96933.38
2023-05-04T09:42:57.884Z,96938.78
2023-05-04T09:43:59.450Z,96933.38
2023-05-04T09:45:08.132Z,96931.81
2023-05-04T09:46:19.437Z,96926.41
2023-05-04T09:47:21.417Z,96932.66
2023-05-04T09:48:29.393Z,96933.81
2023-05-04T09:49:35.269Z,96933.03
2023-05-04T09:50:40.076Z,96926.41
2023-05-04T09:51:42.182Z,96927.59
2023-05-04T09:52:45.411Z,96927.22
2023-05-04T09:53:49.254Z,96922.56
2023-05-04T09:54:50.958Z,96931.91
2023-05-04T09:56:17.907Z,96926.44
2023-05-04T09:57:22.875Z,96926.03
2023-05-04T09:58:29.523Z,96924.88
2023-05-04T09:59:34.585Z,96921.78
2023-05-04T10:00:36.454Z,96922.56
2023-05-04T10:01:38.236Z,96921.81
2023-05-04T10:02:40.741Z,96921.84
2023-05-04T10:03:44.037Z,96921.09
2023-05-04T10:04:45.804Z,96908.69
2023-05-04T10:05:49.131Z,96915.72
2023-05-04T10:06:50.828Z,96909.91
2023-05-04T10:07:52.705Z,96913.41
2023-05-04T10:08:54.301Z,96909.50
2023-05-04T10:09:58.854Z,96907.94
2023-05-04T10:11:00.581Z,96907.16
2023-05-04T10:12:05.810Z,96904.06
2023-05-04T10:13:07.427Z,96897.06
2023-05-04T10:14:09.444Z,96898.59
2023-05-04T10:15:12.426Z,96900.94
2023-05-04T10:16:40.318Z,96902.50
2023-05-04T10:18:20.116Z,96893.13
2023-05-04T10:19:57.909Z,96898.19
2023-05-04T10:21:15.520Z,96894.72
2023-05-04T10:22:51.245Z,96894.69
2023-05-04T10:24:04.936Z,96898.47
2023-05-04T10:25:35.287Z,96893.09
2023-05-04T10:26:50.235Z,96888.84
2023-05-04T10:28:02.315Z,96891.16
2023-05-04T10:29:23.100Z,96887.59
2023-05-04T10:30:25.367Z,96893.38
2023-05-04T10:31:40.371Z,96884.34
2023-05-04T10:32:42.300Z,96884.22
2023-05-04T10:33:44.123Z,96877.28
2023-05-04T10:34:45.858Z,96884.28
2023-05-04T10:35:54.325Z,96888.25
2023-05-04T10:36:56.423Z,96887.50
2023-05-04T10:37:59.075Z,96882.16
2023-05-04T10:39:01.433Z,96879.06
2023-05-04T10:40:08.918Z,96874.47
2023-05-04T10:41:18.842Z,96879.16
2023-05-04T10:42:21.008Z,96879.56
2023-05-04T10:43:28.973Z,96877.22
2023-05-04T10:44:32.645Z,96882.66
2023-05-04T10:45:44.089Z,96883.44
2023-05-04T10:46:59.807Z,96874.88
2023-05-04T10:48:02.414Z,96878.38
2023-05-04T10:49:16.186Z,96883.84
2023-05-04T10:50:17.809Z,96883.06
2023-05-04T10:51:26.529Z,96878.44
2023-05-04T10:52:54.099Z,96883.88
2023-05-04T10:53:55.779Z,96882.28
2023-05-04T10:55:02.228Z,96882.69
2023-05-04T10:56:04.339Z,96883.84
2023-05-04T10:57:11.293Z,96879.97
2023-05-04T10:58:16.571Z,96877.63
2023-05-04T10:59:19.195Z,96890.06
2023-05-04T11:00:21.506Z,96882.69
2023-05-04T11:01:23.212Z,96875.28
2023-05-04T11:02:26.573Z,96874.88
2023-05-04T11:03:39.485Z,96876.41
2023-05-04T11:04:41.247Z,96873.66
2023-05-04T11:05:47.987Z,96876.78
2023-05-04T11:07:00.607Z,96871.38
2023-05-04T11:08:26.418Z,96872.19
2023-05-04T11:09:34.671Z,96869.88
2023-05-04T11:10:36.373Z,96876.81
2023-05-04T11:11:38.581Z,96871.72
2023-05-04T11:12:40.247Z,96872.88
2023-05-04T11:13:46.608Z,96870.94
2023-05-04T11:14:48.260Z,96876.78
2023-05-04T11:15:51.980Z,96869.84
2023-05-04T11:17:12.699Z,96872.19
2023-05-04T11:18:28.686Z,96871.41
2023-05-04T11:19:30.238Z,96869.88
2023-05-04T11:20:31.916Z,96876.09
2023-05-04T11:21:33.613Z,96870.63
2023-05-04T11:22:37.099Z,96877.56
2023-05-04T11:23:39.301Z,96879.03
2023-05-04T11:24:46.195Z,96879.03
2023-05-04T11:25:47.743Z,96875.22
2023-05-04T11:26:49.699Z,96875.22
2023-05-04T11:27:51.849Z,96876.72
2023-05-04T11:28:53.620Z,96875.88
2023-05-04T11:29:59.669Z,96875.94
2023-05-04T11:31:01.315Z,96870.53
2023-05-04T11:32:04.532Z,96872.88
2023-05-04T11:33:14.026Z,96871.31
2023-05-04T11:34:19.953Z,96871.34
2023-05-04T11:35:25.150Z,96871.38
2023-05-04T11:36:27.284Z,96874.47
2023-05-04T11:37:29.462Z,96877.47
2023-05-04T11:38:31.275Z,96870.44
2023-05-04T11:39:33.658Z,96873.50
2023-05-04T11:40:36.427Z,96873.78
2023-05-04T11:41:38.392Z,96865.59
2023-05-04T11:42:41.130Z,96868.66
2023-05-04T11:43:45.123Z,96869.09
2023-05-04T11:44:46.992Z,96871.06
2023-05-04T11:45:48.967Z,96871.94
2023-05-04T11:46:51.767Z,96874.34
2023-05-04T11:47:56.575Z,96868.97
2023-05-04T11:48:59.639Z,96871.34
2023-05-04T11:50:01.378Z,96871.75
2023-05-04T11:51:04.505Z,96860.47
2023-05-04T11:52:10.139Z,96870.63
2023-05-04T11:53:13.844Z,96865.94
2023-05-04T11:54:24.736Z,96866.34
2023-05-04T11:55:28.635Z,96862.47
2023-05-04T11:56:40.893Z,96868.69
2023-05-04T11:57:42.456Z,96861.31
2023-05-04T11:58:44.173Z,96866.38
2023-05-04T11:59:49.516Z,96865.22
2023-05-04T12:00:56.166Z,96855.09
2023-05-04T12:01:57.775Z,96859.78
2023-05-04T12:03:00.801Z,96855.13
2023-05-04T12:04:02.870Z,96854.34
2023-05-04T12:05:12.365Z,96852.00
2023-05-04T12:06:14.013Z,96857.47
2023-05-04T12:07:16.009Z,96854.34
2023-05-04T12:08:41.820Z,96857.44
2023-05-04T12:09:50.122Z,96845.78
2023-05-04T12:11:16.016Z,96850.44
2023-05-04T12:12:20.429Z,96851.19
2023-05-04T12:13:22.231Z,96847.31
2023-05-04T12:14:24.722Z,96850.44
2023-05-04T12:15:31.581Z,96848.13
2023-05-04T12:16:33.731Z,96845.00
2023-05-04T12:17:44.254Z,96846.16
2023-05-04T12:18:47.405Z,96847.75
2023-05-04T12:19:56.483Z,96843.44
2023-05-04T12:21:27.511Z,96845.03
2023-05-04T12:22:30.331Z,96835.69
2023-05-04T12:23:31.912Z,96835.66